Latest Weather Observations for Delamere

IDD60801

Issued at 8:11 am CST Monday 1 March 2021 (issued every 10 minutes, with the page automatically refreshed every 10 minutes)

About weather observations | Map of weather stations | Latest weather observations for NT | Other Formats
Station Details ID: 014949 Name: DELAMERE WEAPONS RANGE Lat: -15.74 Lon: 131.92 Height: 221.0 m
Data from the previous 72 hours. | See also: Recent months at Delamere
Date/Time
CST
Temp
°C
App
Temp
°C
Dew
Point
°C
Rel
Hum
%
Delta-T
°C
Wind Press
QNH
hPa
Press
MSL
hPa
Rain since
9am
mm
Dir  Spd
km/h
Gust
km/h
Spd
kts
Gust
kts
01/08:00am 24.7 25.5 17.4 64 4.6 W 9 13 5 7 1008.7 1007.1 0.0
01/07:30am 23.4 24.2 17.2 68 3.9 WSW 9 13 5 7 1008.3 1006.7 0.0
01/07:00am 22.3 23.4 18.1 77 2.6 WSW 9 13 5 7 1008.0 1006.4 0.0
01/06:30am 21.0 23.2 19.5 91 1.0 W 7 9 4 5 1007.7 1006.1 0.0
01/06:00am 21.3 23.2 18.9 86 1.5 WSW 7 9 4 5 1007.5 1005.9 0.0
01/05:30am 22.0 23.5 17.6 76 2.8 WNW 6 7 3 4 1007.2 1005.5 0.0
01/05:00am 23.0 24.5 17.5 71 3.4 NW 6 7 3 4 1007.0 1005.3 0.0
01/04:30am 23.6 23.9 16.1 62 4.6 NW 9 13 5 7 1007.0 1005.3 0.0
01/04:00am 23.1 24.6 18.8 77 2.7 NW 9 11 5 6 1006.8 1005.1 0.0
01/03:30am 23.0 24.5 19.0 78 2.6 NW 9 11 5 6 1006.7 1005.0 0.0
01/03:00am 22.3 24.8 20.2 88 1.4 WNW 7 9 4 5 1006.9 1005.2 0.0
01/02:30am 22.6 25.2 20.1 86 1.6 WNW 6 7 3 4 1007.3 1005.6 0.0
01/02:00am 22.9 26.6 21.4 91 1.0 W 4 6 2 3 1007.6 1006.0 0.0
01/01:30am 22.9 26.0 21.0 89 1.3 WSW 6 7 3 4 1007.9 1006.3 0.0
01/01:00am 23.5 25.7 19.2 77 2.8 W 6 7 3 4 1008.2 1006.6 0.0
01/12:30am 23.7 26.0 19.4 77 2.8 NW 6 9 3 5 1008.4 1006.8 0.0
01/12:00am 24.0 27.0 20.9 83 2.1 NW 6 7 3 4 1008.7 1007.1 0.0
 
Date/Time
CST
Temp
°C
App
Temp
°C
Dew
Point
°C
Rel
Hum
%
Delta-T
°C
Wind Press
QNH
hPa
Press
MSL
hPa
Rain since
9am
mm
Dir  Spd
km/h
Gust
km/h
Spd
kts
Gust
kts
28/11:30pm 24.4 27.6 21.3 83 2.1 NW 6 7 3 4 1008.9 1007.3 0.0
28/11:00pm 24.4 27.2 17.9 67 4.1 CALM 0 0 0 0 1008.9 1007.3 0.0
28/10:30pm 24.8 30.0 22.9 89 1.3 CALM 0 0 0 0 1008.8 1007.2 0.0
28/10:00pm 25.0 29.8 22.1 84 2.0 CALM 0 0 0 0 1008.5 1006.9 0.0
28/09:30pm 25.6 30.6 22.5 83 2.1 CALM 0 0 0 0 1008.0 1006.4 0.0
28/09:00pm 26.1 31.7 23.6 86 1.7 CALM 0 0 0 0 1007.6 1006.0 0.0
28/08:30pm 26.3 30.7 21.3 74 3.3 CALM 0 0 0 0 1007.4 1005.7 0.0
28/08:00pm 27.0 31.8 22.2 75 3.3 CALM 0 0 0 0 1007.0 1005.3 0.0
28/07:30pm 29.2 35.8 25.2 79 2.8 CALM 0 0 0 0 1006.6 1004.9 0.0
28/07:00pm 30.7 34.9 21.8 59 6.1 SE 2 6 1 3 1006.2 1004.5 0.0
28/06:30pm 33.4 33.5 14.5 32 11.7 ESE 7 9 4 5 1005.9 1004.2 0.0
28/06:00pm 34.4 32.8 10.3 23 14.1 SE 9 13 5 7 1005.6 1003.9 0.0
28/05:30pm 34.9 33.6 11.3 24 14.1 SSE 9 13 5 7 1005.4 1003.7 0.0
28/05:00pm 35.2 34.0 11.6 24 14.1 SE 9 13 5 7 1005.4 1003.7 0.0
28/04:30pm 35.4 34.6 11.1 23 14.5 E 6 17 3 9 1005.6 1003.9 0.0
28/04:00pm 35.7 34.8 13.8 27 13.5 E 11 19 6 10 1005.7 1004.0 0.0
28/03:30pm 35.7 35.2 12.0 24 14.3 SSW 6 11 3 6 1005.9 1004.2 0.0
28/03:00pm 35.5 34.2 9.8 21 15.0 ESE 7 17 4 9 1006.2 1004.5 0.0
28/02:30pm 35.2 34.0 12.8 26 13.7 E 11 17 6 9 1006.6 1004.9 0.0
28/02:00pm 34.9 33.8 13.1 27 13.3 SSW 11 15 6 8 1007.1 1005.4 0.0
28/01:30pm 34.6 34.3 14.5 30 12.5 SW 9 15 5 8 1007.4 1005.7 0.0
28/01:00pm 34.2 34.0 14.7 31 12.2 SSW 9 15 5 8 1007.8 1006.2 0.0
28/12:30pm 33.7 33.7 13.7 30 12.3 SSE 6 13 3 7 1008.2 1006.6 0.0
28/12:00pm 33.7 33.7 13.7 30 12.3 SE 6 11 3 6 1008.5 1006.9 0.0
28/11:30am 33.1 33.8 15.6 35 11.0 SW 6 7 3 4 1008.8 1007.2 0.0
28/11:00am 32.3 33.0 16.2 38 10.2 NNW 7 11 4 6 1008.9 1007.3 0.0
28/10:30am 31.6 32.7 17.1 41 9.3 NNW 7 9 4 5 1009.0 1007.4 0.0
28/10:00am 30.9 31.7 17.2 43 8.8 NNW 9 13 5 7 1008.9 1007.3 0.0
28/09:30am 29.5 29.7 16.7 46 8.1 NNW 11 15 6 8 1008.8 1007.2 0.0
28/09:00am 28.3 29.8 18.1 54 6.6 NNE 7 11 4 6 1008.6 1007.0 0.0
28/08:30am 26.2 29.6 19.3 65 4.5 CALM 0 0 0 0 1008.3 1006.7 0.0
28/08:00am 24.1 27.0 18.3 70 3.7 CALM 0 0 0 0 1008.0 1006.4 0.0
28/07:30am 21.5 24.1 20.0 91 1.0 W 6 7 3 4 1007.7 1006.1 0.0
28/07:00am 20.7 23.0 19.5 93 0.8 W 6 7 3 4 1007.2 1005.5 0.0
28/06:30am 20.5 23.9 19.3 93 0.8 CALM 0 0 0 0 1007.0 1005.3 0.0
28/06:00am 20.8 24.3 19.5 92 0.8 CALM 0 0 0 0 1006.8 1005.1 0.0
28/05:30am 21.2 25.1 20.4 95 0.5 CALM 0 0 0 0 1006.5 1004.8 0.0
28/05:00am 21.3 24.9 19.8 91 1.0 CALM 0 0 0 0 1006.6 1004.9 0.0
28/04:30am 21.9 26.2 21.1 95 0.5 CALM 0 0 0 0 1006.7 1005.0 0.0
28/04:00am 21.9 26.2 21.2 96 0.5 CALM 0 0 0 0 1006.8 1005.1 0.0
28/03:30am 21.9 26.2 21.1 95 0.5 CALM 0 0 0 0 1006.7 1005.0 0.0
28/03:00am 22.1 26.4 21.1 94 0.7 CALM 0 0 0 0 1006.7 1005.0 0.0
28/02:30am 22.3 26.7 21.3 94 0.7 CALM 0 0 0 0 1006.8 1005.1 0.0
28/02:00am 22.5 27.1 21.7 95 0.5 CALM 0 0 0 0 1007.0 1005.3 0.0
28/01:30am 22.6 27.1 21.6 94 0.7 CALM 0 0 0 0 1006.9 1005.2 0.0
28/01:00am 22.8 27.2 21.4 92 0.9 CALM 0 0 0 0 1007.1 1005.4 0.0
28/12:30am 22.9 27.3 21.4 91 1.0 CALM 0 0 0 0 1007.2 1005.5 0.0
28/12:00am 22.9 27.0 20.8 88 1.4 CALM 0 0 0 0 1007.4 1005.7 0.0
 
Date/Time
CST
Temp
°C
App
Temp
°C
Dew
Point
°C
Rel
Hum
%
Delta-T
°C
Wind Press
QNH
hPa
Press
MSL
hPa
Rain since
9am
mm
Dir  Spd
km/h
Gust
km/h
Spd
kts
Gust
kts
27/11:30pm 23.6 27.5 20.3 82 2.2 CALM 0 0 0 0 1007.7 1006.1 0.0
27/11:00pm 24.2 29.0 22.1 88 1.4 CALM 0 4 0 2 1007.4 1005.7 0.0
27/10:30pm 24.7 28.9 23.1 91 1.1 NNE 6 7 3 4 1007.4 1005.7 0.0
27/10:00pm 24.9 28.5 22.0 84 1.9 NNE 6 7 3 4 1007.2 1005.5 0.0
27/09:30pm 25.5 29.6 23.0 86 1.7 NNE 6 7 3 4 1006.9 1005.2 0.0
27/09:00pm 26.3 28.5 19.7 67 4.3 NNE 7 9 4 5 1006.6 1004.9 0.0
27/08:30pm 26.2 29.6 21.6 76 3.1 E 6 7 3 4 1006.1 1004.4 0.0
27/08:00pm 26.8 32.0 22.8 79 2.7 CALM 0 0 0 0 1005.7 1004.0 0.0
27/07:30pm 28.2 31.5 20.0 61 5.4 E 2 6 1 3 1005.4 1003.7 0.0
27/07:00pm 30.8 31.8 16.4 42 9.1 E 6 7 3 4 1005.2 1003.5 0.0
27/06:30pm 32.7 32.3 12.9 30 12.0 E 7 11 4 6 1005.1 1003.4 0.0
27/06:00pm 33.8 31.6 7.7 20 14.7 E 9 15 5 8 1004.9 1003.2 0.0
27/05:30pm 34.3 32.7 10.2 23 14.1 ESE 9 17 5 9 1004.8 1003.1 0.0
27/05:00pm 34.6 33.2 12.3 26 13.4 ESE 11 15 6 8 1004.7 1003.0 0.0
27/04:30pm 34.5 32.5 11.6 25 13.7 SSE 13 19 7 10 1004.4 1002.8 0.0
27/04:00pm 34.7 33.2 10.5 23 14.2 E 9 17 5 9 1004.4 1002.8 0.0
27/03:30pm 34.5 32.2 11.6 25 13.7 SE 15 22 8 12 1004.5 1002.9 0.0
27/03:00pm 34.7 32.8 11.8 25 13.8 E 13 24 7 13 1004.8 1003.1 0.0
27/02:30pm 34.5 32.9 11.6 25 13.7 E 11 20 6 11 1005.1 1003.4 0.0
27/02:00pm 34.2 31.5 8.8 21 14.5 E 13 24 7 13 1005.4 1003.7 0.0
27/01:30pm 33.9 32.2 12.3 27 13.0 E 13 20 7 11 1005.9 1004.2 0.0
27/01:00pm 33.8 32.4 12.2 27 13.0 SSE 11 17 6 9 1006.3 1004.6 0.0
27/12:30pm 33.5 34.1 16.8 36 10.7 SE 9 13 5 7 1006.4 1004.7 0.0
27/12:00pm 32.8 33.0 15.8 36 10.7 SSE 9 15 5 8 1006.6 1004.9 0.0
27/11:30am 31.6 32.6 14.3 35 10.6 NNW 2 9 1 5 1007.0 1005.3 0.0
27/11:00am 31.2 32.3 17.1 42 9.0 N 7 11 4 6 1007.4 1005.7 0.0
27/10:30am 30.4 31.5 17.1 44 8.5 NE 7 11 4 6 1007.6 1006.0 0.0
27/10:00am 28.8 30.0 17.3 49 7.3 N 7 11 4 6 1007.6 1006.0 0.0
27/09:30am 27.3 30.4 19.6 62 5.0 N 2 9 1 5 1007.6 1006.0 0.0
27/09:00am 26.1 29.8 20.0 69 4.0 CALM 0 0 0 0 1007.4 1005.7 -
27/08:30am 24.3 26.7 20.0 77 2.8 NE 7 11 4 6 1007.3 1005.6 -
27/08:00am 22.8 25.8 21.3 91 1.0 NE 7 11 4 6 1007.0 1005.3 -
27/07:30am 22.2 26.6 21.4 95 0.5 CALM 0 0 0 0 1006.4 1004.7 -
27/07:00am 20.8 24.7 20.3 97 0.3 CALM 0 0 0 0 1006.0 1004.3 -
27/06:30am 20.5 24.1 19.7 95 0.5 CALM 0 0 0 0 1005.8 1004.1 -
27/06:00am 20.9 24.7 20.2 96 0.5 CALM 0 0 0 0 1005.5 1003.8 -
27/05:30am 21.1 25.0 20.3 95 0.5 CALM 0 0 0 0 1005.3 1003.6 -
27/05:00am 21.5 25.7 21.0 97 0.3 CALM 0 0 0 0 1005.1 1003.4 -
27/04:30am 21.6 25.9 21.1 97 0.3 CALM 0 0 0 0 1005.0 1003.3 -
27/04:00am 21.8 26.1 21.1 96 0.5 CALM 0 0 0 0 1005.1 1003.4 -
27/03:30am 21.8 26.2 21.3 97 0.3 CALM 0 0 0 0 1005.3 1003.6 -
27/03:00am 21.7 25.8 20.7 94 0.7 CALM 0 0 0 0 1005.4 1003.7 -
27/02:30am 21.8 25.7 20.4 92 0.9 CALM 0 0 0 0 1005.7 1004.0 -
27/02:00am 22.1 26.3 20.9 93 0.8 CALM 0 0 0 0 1005.7 1004.0 -
27/01:30am 22.6 27.1 21.6 94 0.7 CALM 0 0 0 0 1005.9 1004.2 -
27/01:00am 22.7 27.2 21.5 93 0.8 CALM 0 0 0 0 1006.1 1004.4 -
27/12:30am 22.9 27.4 21.5 92 0.9 CALM 0 0 0 0 1006.6 1004.9 -
27/12:00am 23.0 27.3 21.1 89 1.3 CALM 0 0 0 0 1006.7 1005.0 -
 
Date/Time
CST
Temp
°C
App
Temp
°C
Dew
Point
°C
Rel
Hum
%
Delta-T
°C
Wind Press
QNH
hPa
Press
MSL
hPa
Rain since
9am
mm
Dir  Spd
km/h
Gust
km/h
Spd
kts
Gust
kts
26/11:30pm 23.5 28.4 22.3 93 0.8 CALM 0 0 0 0 1006.8 1005.1 -
26/10:30pm 24.5 29.7 22.8 90 1.2 CALM 0 0 0 0 1006.6 1004.9 -
26/10:00pm 24.9 30.0 22.6 87 1.6 CALM 0 0 0 0 1006.6 1004.9 -
26/09:30pm 25.4 30.8 23.3 88 1.4 CALM 0 0 0 0 1006.5 1004.8 -
26/09:00pm 26.1 31.8 23.8 87 1.6 CALM 0 0 0 0 1006.2 1004.5 0.0
26/08:30pm 26.5 32.5 24.2 87 1.6 CALM 0 0 0 0 1005.8 1004.1 -
26/08:00pm 27.2 32.5 23.0 78 2.9 CALM 0 0 0 0 1005.6 1003.9 -
26/07:30pm 28.6 32.0 21.6 66 4.7 E 6 7 3 4 1005.2 1003.5 -
26/07:00pm 30.2 31.6 17.3 46 8.2 ENE 6 9 3 5 1004.8 1003.1 -
26/06:30pm 31.9 32.0 15.4 37 10.3 ESE 9 15 5 8 1004.2 1002.6 -
26/06:00pm 32.7 31.7 13.4 31 11.8 SE 11 17 6 9 1003.9 1002.3 -
26/05:30pm 33.1 32.4 14.2 32 11.7 ESE 11 17 6 9 1003.8 1002.2 -
26/05:00pm 33.4 30.9 12.4 28 12.6 ESE 17 22 9 12 1003.9 1002.3 -
26/04:30pm 33.3 31.0 12.9 29 12.4 SE 17 26 9 14 1003.9 1002.3 -
26/04:00pm 33.7 33.5 15.7 34 11.4 E 11 19 6 10 1003.9 1002.3 -
26/03:30pm 33.4 32.1 14.9 32 11.6 ESE 15 22 8 12 1004.2 1002.6 -
26/03:00pm 33.5 32.7 15.0 32 11.6 ESE 13 26 7 14 1004.3 1002.7 -
26/02:30pm 33.4 31.8 14.0 31 12.0 ESE 15 22 8 12 1004.7 1003.0 -
26/02:00pm 33.1 32.7 15.1 33 11.2 ENE 11 17 6 9 1005.3 1003.6 -
26/01:30pm 33.2 31.5 14.8 33 11.5 ESE 17 26 9 14 1005.8 1004.1 -
26/01:00pm 32.9 32.4 15.8 35 10.8 SE 13 24 7 13 1006.0 1004.3 -
26/12:30pm 32.9 31.7 15.0 34 11.2 SSE 15 20 8 11 1006.3 1004.6 -
26/12:00pm 32.5 31.3 14.1 32 11.3 ESE 13 20 7 11 1006.3 1004.6 -
26/11:30am 31.9 32.4 16.6 39 9.7 E 9 15 5 8 1006.5 1004.8 -
26/11:00am 31.2 32.0 16.4 41 9.4 SSE 7 13 4 7 1006.5 1004.8 -
26/10:30am 30.1 31.8 17.2 46 8.2 SSE 4 7 2 4 1006.7 1005.0 -
26/10:00am 29.2 32.7 19.5 56 6.4 CALM 0 0 0 0 1006.9 1005.2 -
26/09:30am 27.8 30.8 20.9 66 4.6 NNW 6 7 3 4 1006.9 1005.2 0.0
26/09:00am 26.7 29.9 21.2 72 3.7 NW 6 9 3 5 1006.7 1005.0 -
26/08:30am 25.5 28.2 20.7 75 3.2 NW 7 9 4 5 1006.5 1004.8 -

Other formats

Comma delimited format used in spreadsheet applications
http://www.bom.gov.au/fwo/IDD60801/IDD60801.94225.axf

JavaScript Object Notation format (JSON) in row-major order
http://www.bom.gov.au/fwo/IDD60801/IDD60801.94225.json

Data quality

Most of these data are generated automatically and are frequently updated. Quality checks on data are not normally performed. It is possible for incorrect values to appear. Refer to information at About Latest Weather Observations and please check the disclaimer before using these data.